Terminal Aerodrome Forecast
Issued by NWS

Home | Current Version | Previous Version | Text Only | Print | Product List | Glossary On
Versions: 1 2 3 4 5 6 7 8 9 10 11 12 13 14 15 16 17
000
FTUS43 KTOP 030500
TAFFOE
TAF
KFOE 030520Z 0306/0406 14011KT P6SM FEW035
     FM031400 17012KT P6SM SCT035 BKN250
     FM040000 14007KT P6SM BKN035=

USA.gov is the U.S. government's official web portal to all federal, state and local government web resources and services.